Celandine — ONDN — position and weather

sailwx.info

Track history (hours):
 
Tides and Currents Weather Stations Pressure Air Temp Water Temp Dewpoint Dewpoint Depression Visibility Wind Speed Wind Dir Waves Ship Positions

Celandine

Last reported at 2014-Oct-21 06:33 UTC. Time now 2014-Oct-21 07:12 UTC.
Position N 51°30' E 000°43'.

Length 162 m; draft 5.8 m.

Type: Ship (hazmat cat A). MMSI: 205476000.

Date/timePositionNaut miles runAvg speedWind from/ knotsBaromVisibWave heightAir tempDewpointWater temp
2014-Oct-21 06:33N 51°30' E 000°43'1212.4
2014-Oct-21 05:34N 51°27' E 000°23'5 5.4
2014-Oct-21 04:34N 51°28' E 000°15'0 0.0
2014-Oct-21 03:31N 51°28' E 000°15'0 0.0
2014-Oct-21 02:31N 51°28' E 000°15'0 0.0
2014-Oct-21 01:31N 51°28' E 000°15'0 0.0
2014-Oct-21 00:31N 51°28' E 000°15'0 0.0
2014-Oct-20 23:31N 51°28' E 000°15'2 2.6
2014-Oct-20 22:34N 51°28' E 000°19'1211.8
2014-Oct-20 21:34N 51°30' E 000°37'1616.3
2014-Oct-20 20:34N 51°30' E 001°04'1616.3
2014-Oct-20 19:34N 51°29' E 001°30'1414.0
2014-Oct-20 18:34N 51°36' E 001°50'1413.7
2014-Oct-20 17:33N 51°43' E 002°09'1312.9
2014-Oct-20 16:33N 51°36' E 002°26'1412.5
2014-Oct-20 15:25N 51°32' E 002°48'1213.4
2014-Oct-20 14:31N 51°25' E 003°04'7 7.6
2014-Oct-20 13:33N 51°21' E 003°13'0 0.0
2014-Oct-20 12:32N 51°21' E 003°13'0 0.0
2014-Oct-20 11:32N 51°21' E 003°13'0 0.0
2014-Oct-20 10:32N 51°21' E 003°13'0 0.0
2014-Oct-20 09:32N 51°21' E 003°13'0 0.0
2014-Oct-20 08:26N 51°21' E 003°13'0 0.0
2014-Oct-20 07:26N 51°21' E 003°13'0 0.0
2014-Oct-20 06:14N 51°21' E 003°13'0 0.0
2014-Oct-20 05:32N 51°21' E 003°13'0 0.0
2014-Oct-20 04:32N 51°21' E 003°13'0 0.0
2014-Oct-20 03:32N 51°21' E 003°13'0 0.0
2014-Oct-20 02:20N 51°21' E 003°13'0 0.0
2014-Oct-20 01:11N 51°21' E 003°13'0 0.0
2014-Oct-20 00:32N 51°21' E 003°13'0 0.0
2014-Oct-19 23:23N 51°21' E 003°13'0 0.0
2014-Oct-19 20:14N 51°21' E 003°13'0 0.0
2014-Oct-19 18:20N 51°21' E 003°13'0 0.0
2014-Oct-19 16:20N 51°21' E 003°13'0 0.0
2014-Oct-19 15:23N 51°21' E 003°13'0 0.0
2014-Oct-19 14:26N 51°21' E 003°13'0 0.0
2014-Oct-19 13:29N 51°21' E 003°13'0 0.0
2014-Oct-19 12:14N 51°21' E 003°13'0 0.0
2014-Oct-19 11:08N 51°21' E 003°13'0 0.0
2014-Oct-19 10:23N 51°21' E 003°13'0 0.0
2014-Oct-19 09:32N 51°21' E 003°13'0 0.0
2014-Oct-19 08:32N 51°21' E 003°13'0 0.0
2014-Oct-19 07:26N 51°21' E 003°13'0 0.0
2014-Oct-19 06:26N 51°21' E 003°13'0 0.0
2014-Oct-19 05:32N 51°21' E 003°13'0 0.0
2014-Oct-19 04:26N 51°21' E 003°13'0 0.0
2014-Oct-19 03:26N 51°21' E 003°13'0 0.0
2014-Oct-19 02:20N 51°21' E 003°13'0 0.0
2014-Oct-19 01:29N 51°21' E 003°13'0 0.0
2014-Oct-19 00:32N 51°21' E 003°13'0 0.0
2014-Oct-18 23:29N 51°21' E 003°13'4 4.1
2014-Oct-18 22:31N 51°23' E 003°09'2115.6
2014-Oct-18 21:09N 51°35' E 002°39'916.1
2014-Oct-18 20:33N 51°37' E 002°25'1615.9
2014-Oct-18 19:33N 51°37' E 001°59'1716.9
2014-Oct-18 18:34N 51°30' E 001°35'1514.7
2014-Oct-18 17:33N 51°29' E 001°11'1514.6
2014-Oct-18 16:33N 51°29' E 000°48'1514.5
2014-Oct-18 15:34N 51°27' E 000°25'6 6.3
2014-Oct-18 14:33N 51°28' E 000°15'0 0.0
2014-Oct-18 13:32N 51°28' E 000°15'0 0.0
2014-Oct-18 12:32N 51°28' E 000°15'0 0.0
2014-Oct-18 11:32N 51°28' E 000°15'0 0.0
2014-Oct-18 10:32N 51°28' E 000°15'0 0.0
2014-Oct-18 09:32N 51°28' E 000°15'0 0.0
2014-Oct-18 08:32N 51°28' E 000°15'0 0.0
2014-Oct-18 07:32N 51°28' E 000°15'3 2.7
2014-Oct-18 06:34N 51°28' E 000°19'1110.7
2014-Oct-18 05:33N 51°30' E 000°36'1616.1
2014-Oct-18 04:33N 51°30' E 001°02'1616.0
2014-Oct-18 03:34N 51°29' E 001°28'1413.9
2014-Oct-18 02:33N 51°34' E 001°48'10 9.6
2014-Oct-18 01:33N 51°38' E 002°03'1212.0
2014-Oct-18 00:33N 51°39' E 002°22'1211.4
2014-Oct-17 23:29N 51°35' E 002°40'1311.9
2014-Oct-17 22:23N 51°27' E 002°57'12 6.3
2014-Oct-17 20:31N 51°21' E 003°13'0 0.0
2014-Oct-17 19:28N 51°21' E 003°13'0 0.0
2014-Oct-17 18:07N 51°21' E 003°13'0 0.0
2014-Oct-17 17:28N 51°21' E 003°13'0 0.0
2014-Oct-17 16:31N 51°21' E 003°13'0 0.0
2014-Oct-17 15:28N 51°21' E 003°13'0 0.0
2014-Oct-17 14:10N 51°21' E 003°13'0 0.0
2014-Oct-17 13:28N 51°21' E 003°13'1 0.9
2014-Oct-17 12:33N 51°21' E 003°12'1615.3
2014-Oct-17 11:31N 51°30' E 002°51'1616.0
2014-Oct-17 10:33N 51°36' E 002°28'1616.4
2014-Oct-17 09:34N 51°38' E 002°02'1817.9
2014-Oct-17 08:34N 51°30' E 001°36'1717.3
2014-Oct-17 07:34N 51°29' E 001°08'1716.9
2014-Oct-17 06:34N 51°30' E 000°41'1212.0
2014-Oct-17 05:34N 51°27' E 000°23'5 5.0
2014-Oct-17 04:34N 51°28' E 000°15'0 0.0
2014-Oct-17 03:32N 51°28' E 000°15'0 0.0
2014-Oct-17 02:32N 51°28' E 000°15'0 0.0
2014-Oct-17 01:32N 51°28' E 000°15'0 0.0
2014-Oct-17 00:32N 51°28' E 000°15'0 0.0
2014-Oct-16 23:32N 51°28' E 000°15'2 2.3
2014-Oct-16 22:34N 51°28' E 000°18'9 8.5
2014-Oct-16 21:33N 51°30' E 000°32'1312.9
2014-Oct-16 20:33N 51°30' E 000°53'1414.0
2014-Oct-16 19:34N 51°29' E 001°15'1413.8
2014-Oct-16 18:33N 51°31' E 001°37'1413.6
2014-Oct-16 17:33N 51°36' E 001°57'1514.5
2014-Oct-16 16:33N 51°35' E 002°21'1514.9
2014-Oct-16 15:33N 51°33' E 002°45'1515.5
2014-Oct-16 14:33N 51°24' E 003°05'6 6.0
2014-Oct-16 13:33N 51°21' E 003°13'0 0.0
2014-Oct-16 12:32N 51°21' E 003°13'0 0.0
2014-Oct-16 11:32N 51°21' E 003°13'0 0.0
2014-Oct-16 10:32N 51°21' E 003°13'0 0.0
2014-Oct-16 09:29N 51°21' E 003°13'0 0.0
2014-Oct-16 08:32N 51°21' E 003°13'0 0.1
2014-Oct-16 07:32N 51°21' E 003°13'1010.7
2014-Oct-16 06:33N 51°26' E 002°59'1616.4
2014-Oct-16 05:33N 51°34' E 002°36'1717.4
2014-Oct-16 04:33N 51°32' E 002°08'1615.9
2014-Oct-16 03:33N 51°32' E 001°42'1615.7
2014-Oct-16 02:34N 51°29' E 001°18'1514.5
2014-Oct-16 01:34N 51°29' E 000°54'1514.9
2014-Oct-16 00:34N 51°30' E 000°31'8 8.3
2014-Oct-15 23:34N 51°28' E 000°18'2 1.6
2014-Oct-15 22:31N 51°28' E 000°15'0 0.0
2014-Oct-15 21:31N 51°28' E 000°15'0 0.0
2014-Oct-15 20:31N 51°28' E 000°15'0 0.0
2014-Oct-15 19:31N 51°28' E 000°15'0 0.0
2014-Oct-15 18:31N 51°28' E 000°15'0 0.0
2014-Oct-15 17:31N 51°28' E 000°15'1 1.4
2014-Oct-15 16:33N 51°28' E 000°17'9 9.1
2014-Oct-15 15:33N 51°30' E 000°31'1716.6
2014-Oct-15 14:33N 51°29' E 000°58'1817.5
2014-Oct-15 13:33N 51°29' E 001°26'1414.1
2014-Oct-15 12:33N 51°34' E 001°47'1414.2
2014-Oct-15 11:34N 51°39' E 002°08'1313.2
2014-Oct-15 10:33N 51°35' E 002°28'1615.7
2014-Oct-15 09:33N 51°29' E 002°52'1515.4
2014-Oct-15 08:34N 51°21' E 003°12'1 0.7
2014-Oct-15 07:33N 51°21' E 003°13'0 0.0
2014-Oct-15 06:30N 51°21' E 003°13'0 0.0
2014-Oct-15 05:33N 51°21' E 003°13'0 0.0
2014-Oct-15 04:33N 51°21' E 003°13'0 0.0
2014-Oct-15 03:33N 51°21' E 003°13'0 0.0
2014-Oct-15 02:27N 51°21' E 003°13'0 0.0
2014-Oct-15 01:27N 51°21' E 003°13'2 0.8
2014-Oct-14 23:24N 51°22' E 003°11'1615.5
2014-Oct-14 22:24N 51°30' E 002°50'1416.0
2014-Oct-14 21:30N 51°36' E 002°29'1515.5
2014-Oct-14 20:33N 51°40' E 002°06'1717.3
2014-Oct-14 19:34N 51°32' E 001°41'1817.8
2014-Oct-14 18:34N 51°29' E 001°13'1817.6
2014-Oct-14 17:34N 51°30' E 000°45'1413.7
2014-Oct-14 16:34N 51°27' E 000°23'5 5.2
2014-Oct-14 15:34N 51°28' E 000°15'0 0.0
2014-Oct-14 14:32N 51°28' E 000°15'0 0.0
2014-Oct-14 13:32N 51°28' E 000°15'0 0.0
2014-Oct-14 12:32N 51°28' E 000°15'0 0.0
2014-Oct-14 11:32N 51°28' E 000°15'0 0.0
2014-Oct-14 10:32N 51°28' E 000°15'0 0.0
2014-Oct-14 09:32N 51°28' E 000°15'0 0.0
2014-Oct-14 08:32N 51°28' E 000°15'0 0.0
2014-Oct-14 07:32N 51°28' E 000°15'0 0.0
2014-Oct-14 06:32N 51°28' E 000°15'0 0.0
2014-Oct-14 05:32N 51°28' E 000°15'1 0.9
2014-Oct-14 04:33N 51°28' E 000°16'10 9.6
2014-Oct-14 03:33N 51°30' E 000°31'1717.1
2014-Oct-14 02:33N 51°29' E 000°58'1716.6
2014-Oct-14 01:33N 51°29' E 001°25'1514.8
2014-Oct-14 00:33N 51°34' E 001°48'1414.2
2014-Oct-13 23:33N 51°40' E 002°09'1414.1
2014-Oct-13 22:33N 51°34' E 002°29'1615.6
2014-Oct-13 21:33N 51°29' E 002°53'1514.9
2014-Oct-13 20:33N 51°21' E 003°13'0 0.0
2014-Oct-13 19:31N 51°21' E 003°13'0 0.0
2014-Oct-13 18:31N 51°21' E 003°13'0 0.0
2014-Oct-13 17:28N 51°21' E 003°13'0 0.0
2014-Oct-13 16:31N 51°21' E 003°13'0 0.0
2014-Oct-13 15:31N 51°21' E 003°13'0 0.0
2014-Oct-13 14:31N 51°21' E 003°13'0 0.0
2014-Oct-13 13:31N 51°21' E 003°13'0 0.0
2014-Oct-13 12:31N 51°21' E 003°13'0 0.0
2014-Oct-13 11:31N 51°21' E 003°13'0 0.0
2014-Oct-13 10:31N 51°21' E 003°13'0 0.0
2014-Oct-13 09:31N 51°21' E 003°13'1 0.6
2014-Oct-13 08:33N 51°21' E 003°12'1010.5
2014-Oct-13 07:33N 51°30' E 003°03'1515.1
2014-Oct-13 06:33N 51°44' E 003°10'1614.6
2014-Oct-13 05:28N 51°59' E 003°20'1414.6
2014-Oct-13 04:28N 52°13' E 003°28'1715.4
2014-Oct-13 03:23N 52°27' E 003°40'1416.4
2014-Oct-13 02:33N 52°38' E 003°53'1917.0
2014-Oct-13 01:25N 52°57' E 004°00'3217.2
2014-Oct-12 23:32N 53°24' E 004°32'1616.0
2014-Oct-12 22:34N 53°37' E 004°45'1616.1
2014-Oct-12 21:34N 53°45' E 005°09'1615.8
2014-Oct-12 20:33N 53°52' E 005°33'1616.2
2014-Oct-12 19:34N 53°58' E 005°58'5116.7
2014-Oct-12 16:31N 54°38' E 006°52'1616.6
2014-Oct-12 15:33N 54°50' E 007°12'1616.3
2014-Oct-12 14:33N 55°01' E 007°32'1616.1
2014-Oct-12 13:33N 55°13' E 007°51'1616.2
2014-Oct-12 12:33N 55°24' E 008°11'9 9.5
2014-Oct-12 11:33N 55°27' E 008°27'0 0.0
2014-Oct-12 10:32N 55°27' E 008°27'0 0.0
2014-Oct-12 09:29N 55°27' E 008°27'0 0.0
2014-Oct-12 08:32N 55°27' E 008°27'0 0.0
2014-Oct-12 07:32N 55°27' E 008°27'0 0.0
2014-Oct-12 06:32N 55°27' E 008°27'2 2.2
2014-Oct-12 05:34N 55°29' E 008°24'1414.5
2014-Oct-12 04:34N 55°20' E 008°04'1515.1
2014-Oct-12 03:33N 55°09' E 007°45'1515.2
2014-Oct-12 02:33N 54°58' E 007°27'6615.2
2014-Oct-11 22:12N 54°10' E 006°09'1014.8
2014-Oct-11 21:33N 54°01' E 006°02'1716.7
2014-Oct-11 20:33N 53°53' E 005°38'1817.9
2014-Oct-11 19:33N 53°44' E 005°12'1817.7
2014-Oct-11 18:33N 53°33' E 004°48'1918.9
2014-Oct-11 17:33N 53°16' E 004°34'1918.6
2014-Oct-11 16:33N 52°59' E 004°20'1818.1
2014-Oct-11 15:34N 52°44' E 004°04'2217.5
2014-Oct-11 14:19N 52°28' E 003°40'1416.7
2014-Oct-11 13:29N 52°15' E 003°31'1516.1
2014-Oct-11 12:33N 52°01' E 003°24'1514.9
2014-Oct-11 11:33N 51°47' E 003°13'1514.5
2014-Oct-11 10:33N 51°33' E 003°07'1010.2
2014-Oct-11 09:33N 51°23' E 003°09'3 3.3
2014-Oct-11 08:33N 51°21' E 003°13'0 0.0
2014-Oct-11 07:28N 51°21' E 003°13'  
Track history (hours):
 
Tides and Currents Weather Stations Pressure Air Temp Water Temp Dewpoint Dewpoint Depression Visibility Wind Speed Wind Dir Waves Ship Positions

Celandine

Last reported at 2014-Oct-21 06:33 UTC. Time now 2014-Oct-21 07:12 UTC.
Position N 51°30' E 000°43'.

Length 162 m; draft 5.8 m.

Type: Ship (hazmat cat A). MMSI: 205476000.

Date/timePositionNaut miles runAvg speedWind from/ knotsBaromVisibWave heightAir tempDewpointWater temp
2014-Oct-21 06:33N 51°30' E 000°43'1212.4
2014-Oct-21 05:34N 51°27' E 000°23'5 5.4
2014-Oct-21 04:34N 51°28' E 000°15'0 0.0
2014-Oct-21 03:31N 51°28' E 000°15'0 0.0
2014-Oct-21 02:31N 51°28' E 000°15'0 0.0
2014-Oct-21 01:31N 51°28' E 000°15'0 0.0
2014-Oct-21 00:31N 51°28' E 000°15'0 0.0
2014-Oct-20 23:31N 51°28' E 000°15'2 2.6
2014-Oct-20 22:34N 51°28' E 000°19'1211.8
2014-Oct-20 21:34N 51°30' E 000°37'1616.3
2014-Oct-20 20:34N 51°30' E 001°04'1616.3
2014-Oct-20 19:34N 51°29' E 001°30'1414.0
2014-Oct-20 18:34N 51°36' E 001°50'1413.7
2014-Oct-20 17:33N 51°43' E 002°09'1312.9
2014-Oct-20 16:33N 51°36' E 002°26'1412.5
2014-Oct-20 15:25N 51°32' E 002°48'1213.4
2014-Oct-20 14:31N 51°25' E 003°04'7 7.6
2014-Oct-20 13:33N 51°21' E 003°13'0 0.0
2014-Oct-20 12:32N 51°21' E 003°13'0 0.0
2014-Oct-20 11:32N 51°21' E 003°13'0 0.0
2014-Oct-20 10:32N 51°21' E 003°13'0 0.0
2014-Oct-20 09:32N 51°21' E 003°13'0 0.0
2014-Oct-20 08:26N 51°21' E 003°13'0 0.0
2014-Oct-20 07:26N 51°21' E 003°13'0 0.0
2014-Oct-20 06:14N 51°21' E 003°13'0 0.0
2014-Oct-20 05:32N 51°21' E 003°13'0 0.0
2014-Oct-20 04:32N 51°21' E 003°13'0 0.0
2014-Oct-20 03:32N 51°21' E 003°13'0 0.0
2014-Oct-20 02:20N 51°21' E 003°13'0 0.0
2014-Oct-20 01:11N 51°21' E 003°13'0 0.0
2014-Oct-20 00:32N 51°21' E 003°13'0 0.0
2014-Oct-19 23:23N 51°21' E 003°13'0 0.0
2014-Oct-19 20:14N 51°21' E 003°13'0 0.0
2014-Oct-19 18:20N 51°21' E 003°13'0 0.0
2014-Oct-19 16:20N 51°21' E 003°13'0 0.0
2014-Oct-19 15:23N 51°21' E 003°13'0 0.0
2014-Oct-19 14:26N 51°21' E 003°13'0 0.0
2014-Oct-19 13:29N 51°21' E 003°13'0 0.0
2014-Oct-19 12:14N 51°21' E 003°13'0 0.0
2014-Oct-19 11:08N 51°21' E 003°13'0 0.0
2014-Oct-19 10:23N 51°21' E 003°13'0 0.0
2014-Oct-19 09:32N 51°21' E 003°13'0 0.0
2014-Oct-19 08:32N 51°21' E 003°13'0 0.0
2014-Oct-19 07:26N 51°21' E 003°13'0 0.0
2014-Oct-19 06:26N 51°21' E 003°13'0 0.0
2014-Oct-19 05:32N 51°21' E 003°13'0 0.0
2014-Oct-19 04:26N 51°21' E 003°13'0 0.0
2014-Oct-19 03:26N 51°21' E 003°13'0 0.0
2014-Oct-19 02:20N 51°21' E 003°13'0 0.0
2014-Oct-19 01:29N 51°21' E 003°13'0 0.0
2014-Oct-19 00:32N 51°21' E 003°13'0 0.0
2014-Oct-18 23:29N 51°21' E 003°13'4 4.1
2014-Oct-18 22:31N 51°23' E 003°09'2115.6
2014-Oct-18 21:09N 51°35' E 002°39'916.1
2014-Oct-18 20:33N 51°37' E 002°25'1615.9
2014-Oct-18 19:33N 51°37' E 001°59'1716.9
2014-Oct-18 18:34N 51°30' E 001°35'1514.7
2014-Oct-18 17:33N 51°29' E 001°11'1514.6
2014-Oct-18 16:33N 51°29' E 000°48'1514.5
2014-Oct-18 15:34N 51°27' E 000°25'6 6.3
2014-Oct-18 14:33N 51°28' E 000°15'0 0.0
2014-Oct-18 13:32N 51°28' E 000°15'0 0.0
2014-Oct-18 12:32N 51°28' E 000°15'0 0.0
2014-Oct-18 11:32N 51°28' E 000°15'0 0.0
2014-Oct-18 10:32N 51°28' E 000°15'0 0.0
2014-Oct-18 09:32N 51°28' E 000°15'0 0.0
2014-Oct-18 08:32N 51°28' E 000°15'0 0.0
2014-Oct-18 07:32N 51°28' E 000°15'3 2.7
2014-Oct-18 06:34N 51°28' E 000°19'1110.7
2014-Oct-18 05:33N 51°30' E 000°36'1616.1
2014-Oct-18 04:33N 51°30' E 001°02'1616.0
2014-Oct-18 03:34N 51°29' E 001°28'1413.9
2014-Oct-18 02:33N 51°34' E 001°48'10 9.6
2014-Oct-18 01:33N 51°38' E 002°03'1212.0
2014-Oct-18 00:33N 51°39' E 002°22'1211.4
2014-Oct-17 23:29N 51°35' E 002°40'1311.9
2014-Oct-17 22:23N 51°27' E 002°57'12 6.3
2014-Oct-17 20:31N 51°21' E 003°13'0 0.0
2014-Oct-17 19:28N 51°21' E 003°13'0 0.0
2014-Oct-17 18:07N 51°21' E 003°13'0 0.0
2014-Oct-17 17:28N 51°21' E 003°13'0 0.0
2014-Oct-17 16:31N 51°21' E 003°13'0 0.0
2014-Oct-17 15:28N 51°21' E 003°13'0 0.0
2014-Oct-17 14:10N 51°21' E 003°13'0 0.0
2014-Oct-17 13:28N 51°21' E 003°13'1 0.9
2014-Oct-17 12:33N 51°21' E 003°12'1615.3
2014-Oct-17 11:31N 51°30' E 002°51'1616.0
2014-Oct-17 10:33N 51°36' E 002°28'1616.4
2014-Oct-17 09:34N 51°38' E 002°02'1817.9
2014-Oct-17 08:34N 51°30' E 001°36'1717.3
2014-Oct-17 07:34N 51°29' E 001°08'1716.9
2014-Oct-17 06:34N 51°30' E 000°41'1212.0
2014-Oct-17 05:34N 51°27' E 000°23'5 5.0
2014-Oct-17 04:34N 51°28' E 000°15'0 0.0
2014-Oct-17 03:32N 51°28' E 000°15'0 0.0
2014-Oct-17 02:32N 51°28' E 000°15'0 0.0
2014-Oct-17 01:32N 51°28' E 000°15'0 0.0
2014-Oct-17 00:32N 51°28' E 000°15'0 0.0
2014-Oct-16 23:32N 51°28' E 000°15'2 2.3
2014-Oct-16 22:34N 51°28' E 000°18'9 8.5
2014-Oct-16 21:33N 51°30' E 000°32'1312.9
2014-Oct-16 20:33N 51°30' E 000°53'1414.0
2014-Oct-16 19:34N 51°29' E 001°15'1413.8
2014-Oct-16 18:33N 51°31' E 001°37'1413.6
2014-Oct-16 17:33N 51°36' E 001°57'1514.5
2014-Oct-16 16:33N 51°35' E 002°21'1514.9
2014-Oct-16 15:33N 51°33' E 002°45'1515.5
2014-Oct-16 14:33N 51°24' E 003°05'6 6.0
2014-Oct-16 13:33N 51°21' E 003°13'0 0.0
2014-Oct-16 12:32N 51°21' E 003°13'0 0.0
2014-Oct-16 11:32N 51°21' E 003°13'0 0.0
2014-Oct-16 10:32N 51°21' E 003°13'0 0.0
2014-Oct-16 09:29N 51°21' E 003°13'0 0.0
2014-Oct-16 08:32N 51°21' E 003°13'0 0.1
2014-Oct-16 07:32N 51°21' E 003°13'1010.7
2014-Oct-16 06:33N 51°26' E 002°59'1616.4
2014-Oct-16 05:33N 51°34' E 002°36'1717.4
2014-Oct-16 04:33N 51°32' E 002°08'1615.9
2014-Oct-16 03:33N 51°32' E 001°42'1615.7
2014-Oct-16 02:34N 51°29' E 001°18'1514.5
2014-Oct-16 01:34N 51°29' E 000°54'1514.9
2014-Oct-16 00:34N 51°30' E 000°31'8 8.3
2014-Oct-15 23:34N 51°28' E 000°18'2 1.6
2014-Oct-15 22:31N 51°28' E 000°15'0 0.0
2014-Oct-15 21:31N 51°28' E 000°15'0 0.0
2014-Oct-15 20:31N 51°28' E 000°15'0 0.0
2014-Oct-15 19:31N 51°28' E 000°15'0 0.0
2014-Oct-15 18:31N 51°28' E 000°15'0 0.0
2014-Oct-15 17:31N 51°28' E 000°15'1 1.4
2014-Oct-15 16:33N 51°28' E 000°17'9 9.1
2014-Oct-15 15:33N 51°30' E 000°31'1716.6
2014-Oct-15 14:33N 51°29' E 000°58'1817.5
2014-Oct-15 13:33N 51°29' E 001°26'1414.1
2014-Oct-15 12:33N 51°34' E 001°47'1414.2
2014-Oct-15 11:34N 51°39' E 002°08'1313.2
2014-Oct-15 10:33N 51°35' E 002°28'1615.7
2014-Oct-15 09:33N 51°29' E 002°52'1515.4
2014-Oct-15 08:34N 51°21' E 003°12'1 0.7
2014-Oct-15 07:33N 51°21' E 003°13'0 0.0
2014-Oct-15 06:30N 51°21' E 003°13'0 0.0
2014-Oct-15 05:33N 51°21' E 003°13'0 0.0
2014-Oct-15 04:33N 51°21' E 003°13'0 0.0
2014-Oct-15 03:33N 51°21' E 003°13'0 0.0
2014-Oct-15 02:27N 51°21' E 003°13'0 0.0
2014-Oct-15 01:27N 51°21' E 003°13'2 0.8
2014-Oct-14 23:24N 51°22' E 003°11'1615.5
2014-Oct-14 22:24N 51°30' E 002°50'1416.0
2014-Oct-14 21:30N 51°36' E 002°29'1515.5
2014-Oct-14 20:33N 51°40' E 002°06'1717.3
2014-Oct-14 19:34N 51°32' E 001°41'1817.8
2014-Oct-14 18:34N 51°29' E 001°13'1817.6
2014-Oct-14 17:34N 51°30' E 000°45'1413.7
2014-Oct-14 16:34N 51°27' E 000°23'5 5.2
2014-Oct-14 15:34N 51°28' E 000°15'0 0.0
2014-Oct-14 14:32N 51°28' E 000°15'0 0.0
2014-Oct-14 13:32N 51°28' E 000°15'0 0.0
2014-Oct-14 12:32N 51°28' E 000°15'0 0.0
2014-Oct-14 11:32N 51°28' E 000°15'0 0.0
2014-Oct-14 10:32N 51°28' E 000°15'0 0.0
2014-Oct-14 09:32N 51°28' E 000°15'0 0.0
2014-Oct-14 08:32N 51°28' E 000°15'0 0.0
2014-Oct-14 07:32N 51°28' E 000°15'0 0.0
2014-Oct-14 06:32N 51°28' E 000°15'0 0.0
2014-Oct-14 05:32N 51°28' E 000°15'1 0.9
2014-Oct-14 04:33N 51°28' E 000°16'10 9.6
2014-Oct-14 03:33N 51°30' E 000°31'1717.1
2014-Oct-14 02:33N 51°29' E 000°58'1716.6
2014-Oct-14 01:33N 51°29' E 001°25'1514.8
2014-Oct-14 00:33N 51°34' E 001°48'1414.2
2014-Oct-13 23:33N 51°40' E 002°09'1414.1
2014-Oct-13 22:33N 51°34' E 002°29'1615.6
2014-Oct-13 21:33N 51°29' E 002°53'1514.9
2014-Oct-13 20:33N 51°21' E 003°13'0 0.0
2014-Oct-13 19:31N 51°21' E 003°13'0 0.0
2014-Oct-13 18:31N 51°21' E 003°13'0 0.0
2014-Oct-13 17:28N 51°21' E 003°13'0 0.0
2014-Oct-13 16:31N 51°21' E 003°13'0 0.0
2014-Oct-13 15:31N 51°21' E 003°13'0 0.0
2014-Oct-13 14:31N 51°21' E 003°13'0 0.0
2014-Oct-13 13:31N 51°21' E 003°13'0 0.0
2014-Oct-13 12:31N 51°21' E 003°13'0 0.0
2014-Oct-13 11:31N 51°21' E 003°13'0 0.0
2014-Oct-13 10:31N 51°21' E 003°13'0 0.0
2014-Oct-13 09:31N 51°21' E 003°13'1 0.6
2014-Oct-13 08:33N 51°21' E 003°12'1010.5
2014-Oct-13 07:33N 51°30' E 003°03'1515.1
2014-Oct-13 06:33N 51°44' E 003°10'1614.6
2014-Oct-13 05:28N 51°59' E 003°20'1414.6
2014-Oct-13 04:28N 52°13' E 003°28'1715.4
2014-Oct-13 03:23N 52°27' E 003°40'1416.4
2014-Oct-13 02:33N 52°38' E 003°53'1917.0
2014-Oct-13 01:25N 52°57' E 004°00'3217.2
2014-Oct-12 23:32N 53°24' E 004°32'1616.0
2014-Oct-12 22:34N 53°37' E 004°45'1616.1
2014-Oct-12 21:34N 53°45' E 005°09'1615.8
2014-Oct-12 20:33N 53°52' E 005°33'1616.2
2014-Oct-12 19:34N 53°58' E 005°58'5116.7
2014-Oct-12 16:31N 54°38' E 006°52'1616.6
2014-Oct-12 15:33N 54°50' E 007°12'1616.3
2014-Oct-12 14:33N 55°01' E 007°32'1616.1
2014-Oct-12 13:33N 55°13' E 007°51'1616.2
2014-Oct-12 12:33N 55°24' E 008°11'9 9.5
2014-Oct-12 11:33N 55°27' E 008°27'0 0.0
2014-Oct-12 10:32N 55°27' E 008°27'0 0.0
2014-Oct-12 09:29N 55°27' E 008°27'0 0.0
2014-Oct-12 08:32N 55°27' E 008°27'0 0.0
2014-Oct-12 07:32N 55°27' E 008°27'0 0.0
2014-Oct-12 06:32N 55°27' E 008°27'2 2.2
2014-Oct-12 05:34N 55°29' E 008°24'1414.5
2014-Oct-12 04:34N 55°20' E 008°04'1515.1
2014-Oct-12 03:33N 55°09' E 007°45'1515.2
2014-Oct-12 02:33N 54°58' E 007°27'6615.2
2014-Oct-11 22:12N 54°10' E 006°09'1014.8
2014-Oct-11 21:33N 54°01' E 006°02'1716.7
2014-Oct-11 20:33N 53°53' E 005°38'1817.9
2014-Oct-11 19:33N 53°44' E 005°12'1817.7
2014-Oct-11 18:33N 53°33' E 004°48'1918.9
2014-Oct-11 17:33N 53°16' E 004°34'1918.6
2014-Oct-11 16:33N 52°59' E 004°20'1818.1
2014-Oct-11 15:34N 52°44' E 004°04'2217.5
2014-Oct-11 14:19N 52°28' E 003°40'1416.7
2014-Oct-11 13:29N 52°15' E 003°31'1516.1
2014-Oct-11 12:33N 52°01' E 003°24'1514.9
2014-Oct-11 11:33N 51°47' E 003°13'1514.5
2014-Oct-11 10:33N 51°33' E 003°07'1010.2
2014-Oct-11 09:33N 51°23' E 003°09'3 3.3
2014-Oct-11 08:33N 51°21' E 003°13'0 0.0
2014-Oct-11 07:28N 51°21' E 003°13'  

Dump ship's entire track history